Time;durP1;ratioP1;P1;durP2;ratioP2;P2;SDS_P1;SDS_P2;PMS_P1;PMS_P2;Temp;Humidity;BMP_temperature;BMP_pressure;BME280_temperature;BME280_humidity;BME280_pressure;Samples;Min_cycle;Max_cycle;Signal;HPM_P1;HPM_P2
2023/10/30 00:01:00;;;;;;;2.03;0.50;;;;;;;11.16;100.00;99428.59;6126777;28;20032;-77
2023/10/30 00:03:55;;;;;;;3.40;0.70;;;;;;;11.15;100.00;99461.44;6127537;28;20025;-75
2023/10/30 00:06:51;;;;;;;1.53;0.60;;;;;;;10.99;100.00;99456.28;6124360;28;20728;-79
2023/10/30 00:09:49;;;;;;;3.03;0.45;;;;;;;11.00;100.00;99460.59;6124613;28;20025;-78
2023/10/30 00:12:44;;;;;;;1.23;0.52;;;;;;;10.98;100.00;99470.56;6126285;28;20186;-79
2023/10/30 00:15:39;;;;;;;4.53;0.70;;;;;;;10.81;100.00;99463.75;6128916;28;20036;-78
2023/10/30 00:18:35;;;;;;;1.65;0.70;;;;;;;10.62;100.00;99470.34;6124096;28;21169;-76
2023/10/30 00:21:31;;;;;;;3.33;0.60;;;;;;;10.55;100.00;99470.22;6124378;28;20041;-77
2023/10/30 00:24:29;;;;;;;1.17;0.40;;;;;;;10.59;100.00;99502.53;6126323;28;20085;-76
2023/10/30 00:27:24;;;;;;;4.22;0.68;;;;;;;10.68;100.00;99501.47;6124852;28;20029;-75
2023/10/30 00:30:19;;;;;;;2.37;0.60;;;;;;;10.73;100.00;99496.47;6123638;28;20491;-75
2023/10/30 00:33:15;;;;;;;1.67;0.60;;;;;;;10.61;100.00;99469.53;6123223;28;20052;-77
2023/10/30 00:36:10;;;;;;;3.10;0.67;;;;;;;10.88;100.00;99501.81;6123304;28;20028;-77
2023/10/30 00:39:05;;;;;;;5.97;0.67;;;;;;;10.89;100.00;99491.03;6122740;28;20306;-77
2023/10/30 00:42:01;;;;;;;6.18;0.80;;;;;;;11.00;100.00;99503.03;6126478;28;20028;-75
2023/10/30 00:44:56;;;;;;;2.20;0.50;;;;;;;10.95;100.00;99513.38;6133015;28;20106;-77
2023/10/30 00:47:52;;;;;;;1.13;0.50;;;;;;;10.93;100.00;99510.03;6126539;28;20266;-75
2023/10/30 00:50:48;;;;;;;3.38;0.65;;;;;;;10.73;100.00;99491.97;6123169;28;20279;-77
2023/10/30 00:53:43;;;;;;;3.58;0.57;;;;;;;10.73;100.00;99499.91;6125643;28;20024;-79
2023/10/30 00:56:38;;;;;;;4.43;0.70;;;;;;;10.91;100.00;99526.16;6129331;28;20112;-75
2023/10/30 00:59:34;;;;;;;7.47;0.97;;;;;;;10.81;100.00;99516.78;6129579;28;20044;-73
2023/10/30 01:02:29;;;;;;;1.63;0.67;;;;;;;10.78;100.00;99520.63;6122793;28;20352;-76
2023/10/30 01:05:24;;;;;;;1.97;0.60;;;;;;;10.87;100.00;99537.31;6122709;28;20463;-76
2023/10/30 01:08:19;;;;;;;3.73;1.30;;;;;;;10.91;100.00;99538.56;6123348;28;20048;-75
2023/10/30 01:11:15;;;;;;;3.90;0.73;;;;;;;10.87;100.00;99516.88;6128171;28;20024;-77
2023/10/30 01:14:10;;;;;;;3.17;0.80;;;;;;;10.94;100.00;99519.66;6129819;28;20037;-76
2023/10/30 01:17:05;;;;;;;2.50;0.53;;;;;;;10.93;100.00;99531.25;6125378;28;20271;-76
2023/10/30 01:20:03;;;;;;;7.43;0.83;;;;;;;10.97;100.00;99532.56;6125694;28;20121;-76
2023/10/30 01:22:58;;;;;;;4.07;0.65;;;;;;;11.12;100.00;99541.41;6133705;28;20285;-76
2023/10/30 01:25:54;;;;;;;2.50;0.50;;;;;;;11.14;100.00;99542.06;6122710;28;20033;-77
2023/10/30 01:28:49;;;;;;;3.80;0.47;;;;;;;11.12;100.00;99533.44;6129487;28;20539;-74
2023/10/30 01:31:45;;;;;;;1.43;0.40;;;;;;;11.07;100.00;99527.84;6123174;28;20562;-77
2023/10/30 01:34:40;;;;;;;1.23;0.60;;;;;;;11.06;100.00;99536.81;6104139;28;20032;-76
2023/10/30 01:37:35;;;;;;;3.43;1.07;;;;;;;11.12;100.00;99554.66;6125548;28;20056;-77
2023/10/30 01:40:31;;;;;;;4.20;0.77;;;;;;;11.00;100.00;99537.53;6121921;28;20105;-75
2023/10/30 01:43:30;;;;;;;3.80;0.70;;;;;;;10.93;100.00;99531.25;6104157;28;20490;-78
2023/10/30 01:46:25;;;;;;;2.03;0.77;;;;;;;11.01;100.00;99549.78;6121709;28;20565;-75
2023/10/30 01:49:21;;;;;;;1.73;0.70;;;;;;;10.90;100.00;99543.06;6121562;28;20025;-75
2023/10/30 01:52:17;;;;;;;3.85;0.70;;;;;;;10.90;100.00;99558.97;6122715;28;20610;-78
2023/10/30 01:55:13;;;;;;;3.38;0.80;;;;;;;10.88;100.00;99545.06;6131749;28;20108;-74
2023/10/30 01:58:09;;;;;;;2.40;0.60;;;;;;;10.76;100.00;99542.00;6126457;28;20028;-74
2023/10/30 02:01:05;;;;;;;1.83;0.60;;;;;;;10.75;100.00;99550.97;6103580;28;20924;-78
2023/10/30 02:04:00;;;;;;;2.63;0.60;;;;;;;10.74;100.00;99551.13;6126862;28;20048;-77
2023/10/30 02:06:55;;;;;;;3.83;1.60;;;;;;;10.77;100.00;99556.91;6125664;28;20028;-76
2023/10/30 02:09:51;;;;;;;1.67;0.60;;;;;;;10.79;100.00;99558.56;6123052;28;20047;-75
2023/10/30 02:12:50;;;;;;;6.63;0.80;;;;;;;10.53;100.00;99514.66;6102779;28;20071;-77
2023/10/30 02:15:45;;;;;;;1.58;0.73;;;;;;;10.71;100.00;99538.22;6128322;28;20403;-76
2023/10/30 02:18:40;;;;;;;3.30;1.00;;;;;;;10.75;100.00;99540.34;6122025;28;20043;-73
2023/10/30 02:21:35;;;;;;;9.20;0.90;;;;;;;10.68;100.00;99520.03;6129852;28;20043;-75
2023/10/30 02:24:31;;;;;;;3.77;0.60;;;;;;;10.69;100.00;99530.44;6129647;28;20039;-73
2023/10/30 02:27:26;;;;;;;4.43;1.02;;;;;;;10.73;100.00;99529.06;6127351;28;20085;-76
2023/10/30 02:30:22;;;;;;;6.17;0.83;;;;;;;10.85;100.00;99533.97;6129156;28;20028;-75
2023/10/30 02:33:17;;;;;;;3.63;0.80;;;;;;;10.76;100.00;99515.47;6120864;28;20063;-78
2023/10/30 02:36:12;;;;;;;2.40;0.43;;;;;;;10.75;100.00;99511.19;6120762;28;20038;-73
2023/10/30 02:39:08;;;;;;;2.90;0.83;;;;;;;10.87;100.00;99537.31;6120629;28;20044;-74
2023/10/30 02:42:04;;;;;;;2.72;0.70;;;;;;;10.77;100.00;99527.75;6120435;28;20029;-75
2023/10/30 02:44:59;;;;;;;2.67;0.70;;;;;;;10.71;100.00;99515.19;6121502;28;20028;-75
2023/10/30 02:47:55;;;;;;;3.55;0.80;;;;;;;10.68;100.00;99512.88;6130434;28;20066;-74
2023/10/30 02:50:50;;;;;;;2.33;0.80;;;;;;;10.73;100.00;99526.44;6121485;28;20036;-76
2023/10/30 02:53:45;;;;;;;4.60;0.90;;;;;;;10.67;100.00;99521.03;6120911;28;20055;-76
2023/10/30 02:56:41;;;;;;;3.70;0.70;;;;;;;10.76;100.00;99526.06;6120916;28;20047;-76
2023/10/30 02:59:36;;;;;;;4.00;0.53;;;;;;;10.91;100.00;99536.75;6120750;28;20032;-76
2023/10/30 03:02:31;;;;;;;2.65;0.80;;;;;;;10.74;100.00;99508.69;6120748;28;20041;-75
2023/10/30 03:05:27;;;;;;;3.97;0.90;;;;;;;10.82;100.00;99521.09;6120498;28;20025;-74
2023/10/30 03:08:25;;;;;;;3.07;0.90;;;;;;;10.82;100.00;99523.75;6120689;28;20345;-77
2023/10/30 03:11:20;;;;;;;2.33;0.77;;;;;;;10.94;100.00;99544.38;6125698;28;20028;-75
2023/10/30 03:14:15;;;;;;;1.47;0.40;;;;;;;10.85;100.00;99531.31;6136981;28;20506;-75
2023/10/30 03:17:11;;;;;;;5.03;1.10;;;;;;;10.89;100.00;99540.59;6122550;28;20263;-76
2023/10/30 03:20:08;;;;;;;4.33;0.60;;;;;;;10.80;100.00;99520.44;6120634;28;20282;-79
2023/10/30 03:23:03;;;;;;;1.65;0.40;;;;;;;10.76;100.00;99522.63;6121738;28;20116;-74
2023/10/30 03:25:59;;;;;;;6.43;0.82;;;;;;;10.89;100.00;99540.59;6126246;28;20401;-76
2023/10/30 03:28:55;;;;;;;3.85;0.68;;;;;;;10.84;100.00;99521.75;6125115;28;20407;-76
2023/10/30 03:31:54;;;;;;;3.92;0.65;;;;;;;10.91;100.00;99535.94;6124977;28;20032;-77
2023/10/30 03:34:49;;;;;;;3.05;0.88;;;;;;;10.80;100.00;99515.94;6131157;28;20107;-77
2023/10/30 03:37:45;;;;;;;3.57;0.90;;;;;;;10.81;100.00;99530.03;6122895;28;20082;-75
2023/10/30 03:40:40;;;;;;;2.30;0.70;;;;;;;10.86;100.00;99530.34;6124299;28;20603;-76
2023/10/30 03:43:36;;;;;;;3.03;0.80;;;;;;;10.78;100.00;99533.88;6124496;28;20029;-75
2023/10/30 03:46:31;;;;;;;3.20;0.70;;;;;;;10.71;100.00;99530.25;6134931;28;20028;-75
2023/10/30 03:49:26;;;;;;;4.22;0.82;;;;;;;10.65;100.00;99518.53;6130267;28;20028;-76
2023/10/30 03:52:22;;;;;;;2.67;0.77;;;;;;;10.88;100.00;99523.00;6134621;28;20111;-76
2023/10/30 03:55:17;;;;;;;6.57;0.90;;;;;;;10.94;100.00;99556.78;6124307;28;20450;-76
2023/10/30 03:58:12;;;;;;;8.83;1.10;;;;;;;10.89;100.00;99549.38;6130901;28;20365;-75
2023/10/30 04:01:08;;;;;;;2.30;0.50;;;;;;;10.96;100.00;99552.97;6126413;28;20302;-77
2023/10/30 04:04:04;;;;;;;3.42;1.08;;;;;;;10.96;100.00;99530.91;6105992;28;20033;-76
2023/10/30 04:07:01;;;;;;;3.72;0.90;;;;;;;10.94;100.00;99538.22;6129993;28;20040;-76
2023/10/30 04:09:57;;;;;;;9.35;1.20;;;;;;;10.90;100.00;99543.06;6130343;28;20028;-76
2023/10/30 04:12:52;;;;;;;6.83;0.70;;;;;;;11.00;100.00;99561.41;6137167;28;20071;-78
2023/10/30 04:15:47;;;;;;;4.40;1.13;;;;;;;10.82;100.00;99531.72;6124690;28;20267;-76
2023/10/30 04:18:43;;;;;;;7.87;0.93;;;;;;;10.90;100.00;99532.44;6124511;28;20123;-76
2023/10/30 04:21:38;;;;;;;4.93;0.87;;;;;;;10.67;100.00;99489.22;6130827;28;20078;-76
2023/10/30 04:24:34;;;;;;;4.95;1.00;;;;;;;10.63;100.00;99506.44;6123223;28;20287;-76
2023/10/30 04:27:29;;;;;;;4.80;1.23;;;;;;;10.78;100.00;99541.81;6123947;28;20043;-76
2023/10/30 04:30:25;;;;;;;3.97;0.70;;;;;;;10.85;100.00;99548.06;6123601;28;20024;-76
2023/10/30 04:33:20;;;;;;;4.38;0.93;;;;;;;10.71;100.00;99535.56;6123337;28;20048;-76
2023/10/30 04:36:15;;;;;;;6.97;0.90;;;;;;;10.73;100.00;99558.25;6123407;28;20021;-75
2023/10/30 04:39:13;;;;;;;6.10;0.93;;;;;;;10.65;100.00;99545.03;6123566;28;20052;-74
2023/10/30 04:42:08;;;;;;;4.63;0.80;;;;;;;10.67;100.00;99534.28;6127253;28;20059;-77
2023/10/30 04:45:04;;;;;;;5.63;1.10;;;;;;;10.55;100.00;99523.25;6123334;28;20035;-77
2023/10/30 04:47:59;;;;;;;7.93;1.15;;;;;;;10.69;100.00;99546.34;6125906;28;20020;-76
2023/10/30 04:50:54;;;;;;;6.80;1.30;;;;;;;10.70;100.00;99549.84;6105972;28;20041;-78
2023/10/30 04:53:50;;;;;;;3.93;0.60;;;;;;;10.58;100.00;99525.53;6122658;28;20036;-76
2023/10/30 04:56:45;;;;;;;3.57;1.10;;;;;;;10.70;100.00;99548.03;6129870;28;20028;-77
2023/10/30 04:59:40;;;;;;;4.03;0.77;;;;;;;10.74;100.00;99545.81;6122724;28;20630;-75
2023/10/30 05:02:36;;;;;;;6.30;0.90;;;;;;;10.67;100.00;99534.28;6108512;28;20278;-77
2023/10/30 05:05:31;;;;;;;4.67;0.77;;;;;;;10.71;100.00;99538.22;6126146;28;20442;-74
2023/10/30 05:08:26;;;;;;;3.60;0.70;;;;;;;10.70;100.00;99542.72;6108199;28;20419;-78
2023/10/30 05:11:22;;;;;;;4.90;0.90;;;;;;;10.77;100.00;99564.88;6122743;28;20310;-76
2023/10/30 05:14:17;;;;;;;3.50;0.70;;;;;;;10.71;100.00;99560.25;6119948;28;20302;-77
2023/10/30 05:17:13;;;;;;;5.13;0.70;;;;;;;10.71;100.00;99538.22;6122773;28;20254;-76
2023/10/30 05:20:09;;;;;;;7.55;0.85;;;;;;;10.74;100.00;99548.47;6123998;28;20052;-77
2023/10/30 05:23:04;;;;;;;2.17;0.70;;;;;;;10.72;100.00;99546.00;6127922;28;20032;-76
2023/10/30 05:25:59;;;;;;;7.72;0.98;;;;;;;10.79;100.00;99550.63;6133950;28;20119;-75
2023/10/30 05:28:55;;;;;;;3.20;0.90;;;;;;;10.81;100.00;99553.91;6123446;28;20068;-76
2023/10/30 05:31:50;;;;;;;3.70;0.80;;;;;;;10.82;100.00;99534.34;6122515;28;20028;-78
2023/10/30 05:34:46;;;;;;;9.23;0.90;;;;;;;10.79;100.00;99545.31;6121839;28;20377;-76
2023/10/30 05:37:42;;;;;;;6.95;1.15;;;;;;;10.75;100.00;99537.72;6121571;28;20114;-77
2023/10/30 05:40:37;;;;;;;4.60;0.90;;;;;;;10.81;100.00;99545.94;6126469;28;20048;-77
2023/10/30 05:43:33;;;;;;;4.20;0.90;;;;;;;10.76;100.00;99536.69;6124074;28;20135;-79
2023/10/30 05:46:28;;;;;;;8.57;0.97;;;;;;;10.71;100.00;99533.75;6121564;28;20054;-75
2023/10/30 05:49:26;;;;;;;4.63;1.13;;;;;;;10.82;100.00;99544.97;6125062;28;20034;-74
2023/10/30 05:52:22;;;;;;;5.10;0.88;;;;;;;10.77;100.00;99526.91;6124554;28;20020;-76
2023/10/30 05:55:17;;;;;;;4.93;0.70;;;;;;;10.74;100.00;99537.88;6121716;28;20038;-78
2023/10/30 05:58:12;;;;;;;2.07;0.80;;;;;;;10.77;100.00;99537.50;6123766;28;20039;-78
2023/10/30 06:01:08;;;;;;;4.57;1.50;;;;;;;10.70;100.00;99533.94;6131582;28;20649;-77
2023/10/30 06:04:04;;;;;;;3.07;0.70;;;;;;;10.76;100.00;99535.88;6121441;28;20116;-78
2023/10/30 06:06:59;;;;;;;6.57;1.23;;;;;;;10.80;100.00;99550.44;6121302;28;20287;-75
2023/10/30 06:09:55;;;;;;;1.73;0.50;;;;;;;10.84;100.00;99561.53;6132530;28;20028;-78
2023/10/30 06:12:50;;;;;;;8.60;1.08;;;;;;;10.75;100.00;99556.28;6122662;28;20464;-75
2023/10/30 06:15:46;;;;;;;4.55;0.80;;;;;;;10.81;100.00;99564.53;6131338;28;20032;-78
2023/10/30 06:18:41;;;;;;;4.37;0.83;;;;;;;10.76;100.00;99565.84;6122418;28;20035;-78
2023/10/30 06:21:39;;;;;;;8.32;1.13;;;;;;;10.90;100.00;99582.03;6123793;28;20271;-76
2023/10/30 06:24:34;;;;;;;6.88;1.08;;;;;;;10.91;100.00;99581.00;6124258;28;20032;-77
2023/10/30 06:27:31;;;;;;;3.33;0.80;;;;;;;11.01;100.00;99597.53;6126493;28;20029;-75
2023/10/30 06:30:27;;;;;;;10.82;1.45;;;;;;;10.95;100.00;99585.78;6125379;28;20031;-76
2023/10/30 06:33:22;;;;;;;3.47;0.87;;;;;;;10.97;100.00;99580.31;6120938;28;20024;-78
2023/10/30 06:36:17;;;;;;;8.90;0.97;;;;;;;11.05;100.00;99590.88;6121386;28;20055;-74
2023/10/30 06:39:17;;;;;;;5.03;1.03;;;;;;;11.12;100.00;99600.59;6119868;28;20028;-75
2023/10/30 06:42:13;;;;;;;6.60;1.20;;;;;;;10.95;100.00;99592.94;6120926;28;20038;-74
2023/10/30 06:45:09;;;;;;;3.05;1.02;;;;;;;10.88;100.00;99597.28;6121796;28;20032;-75
2023/10/30 06:48:04;;;;;;;4.10;0.90;;;;;;;10.95;100.00;99604.34;6125943;28;20064;-76
2023/10/30 06:50:59;;;;;;;4.60;1.20;;;;;;;10.72;100.00;99590.25;6130885;28;20119;-77
2023/10/30 06:53:55;;;;;;;7.03;1.30;;;;;;;10.79;100.00;99606.31;6120898;28;20067;-78
2023/10/30 06:56:50;;;;;;;11.50;1.20;;;;;;;10.72;100.00;99600.84;6124398;28;20187;-75
2023/10/30 06:59:45;;;;;;;6.28;1.13;;;;;;;10.75;100.00;99603.16;6128562;28;20358;-77
2023/10/30 07:02:41;;;;;;;7.30;1.10;;;;;;;10.79;100.00;99619.56;6125602;28;20036;-77
2023/10/30 07:05:36;;;;;;;6.97;1.20;;;;;;;10.82;100.00;99620.00;6123733;28;20028;-77
2023/10/30 07:08:32;;;;;;;5.97;1.27;;;;;;;10.85;100.00;99621.50;6125287;28;20491;-76
2023/10/30 07:11:27;;;;;;;6.57;1.20;;;;;;;10.79;100.00;99608.94;6124952;28;20029;-78
2023/10/30 07:14:22;;;;;;;5.07;1.40;;;;;;;10.98;100.00;99624.41;6133720;28;20028;-77
2023/10/30 07:17:18;;;;;;;7.23;1.90;;;;;;;11.06;100.00;99632.34;6126952;28;20062;-77
2023/10/30 07:20:14;;;;;;;6.07;2.38;;;;;;;11.10;100.00;99639.75;6125454;28;20056;-77
2023/10/30 07:23:09;;;;;;;3.92;1.70;;;;;;;11.22;100.00;99656.91;6124261;28;20036;-75
2023/10/30 07:26:05;;;;;;;8.77;3.17;;;;;;;11.28;100.00;99663.34;6132030;28;20032;-73
2023/10/30 07:29:00;;;;;;;8.30;1.40;;;;;;;11.25;100.00;99658.41;6124629;28;20029;-76
2023/10/30 07:31:56;;;;;;;6.33;1.47;;;;;;;11.39;100.00;99670.88;6130541;28;20032;-78
2023/10/30 07:34:51;;;;;;;9.00;1.30;;;;;;;11.35;100.00;99659.00;6128278;28;20028;-78
2023/10/30 07:37:47;;;;;;;5.73;1.43;;;;;;;11.32;100.00;99646.91;6125510;28;20044;-76
2023/10/30 07:40:43;;;;;;;9.90;1.52;;;;;;;11.43;100.00;99650.97;6129508;28;20286;-76
2023/10/30 07:43:38;;;;;;;3.07;1.10;;;;;;;11.51;100.00;99658.88;6124603;28;20033;-74
2023/10/30 07:46:34;;;;;;;6.90;1.30;;;;;;;11.50;100.00;99653.72;6124387;28;20480;-76
2023/10/30 07:49:29;;;;;;;4.57;1.30;;;;;;;11.51;100.00;99658.88;6137812;28;20039;-75
2023/10/30 07:52:25;;;;;;;4.30;1.13;;;;;;;11.52;100.00;99649.91;6129096;28;20503;-77
2023/10/30 07:55:20;;;;;;;2.53;0.93;;;;;;;11.56;100.00;99643.22;6129260;28;20278;-78
2023/10/30 07:58:15;;;;;;;6.37;1.37;;;;;;;11.59;100.00;99660.63;6135174;28;20474;-77
2023/10/30 08:01:11;;;;;;;7.03;1.27;;;;;;;11.63;100.00;99656.63;6108346;28;20171;-76
2023/10/30 08:04:09;;;;;;;6.30;1.35;;;;;;;11.74;100.00;99651.72;6129134;28;20063;-75
2023/10/30 08:07:04;;;;;;;3.97;1.17;;;;;;;11.84;100.00;99660.28;6130030;28;20079;-75
2023/10/30 08:10:00;;;;;;;7.77;1.30;;;;;;;11.88;100.00;99650.94;6123845;28;20029;-75
2023/10/30 08:12:56;;;;;;;2.42;0.88;;;;;;;11.96;100.00;99646.56;6131892;28;20602;-76
2023/10/30 08:15:52;;;;;;;3.30;1.30;;;;;;;12.01;100.00;99639.72;6131748;28;20029;-78
2023/10/30 08:18:54;;;;;;;4.22;1.23;;;;;;;12.06;100.00;99639.16;6124601;28;20723;-77
2023/10/30 08:21:49;;;;;;;9.18;1.67;;;;;;;11.99;100.00;99633.72;6131110;28;20492;-76
2023/10/30 08:24:44;;;;;;;3.87;1.10;;;;;;;12.08;100.00;99637.97;6133229;28;20050;-77
2023/10/30 08:27:40;;;;;;;6.50;1.67;;;;;;;12.12;100.00;99633.91;6137404;28;20035;-77
2023/10/30 08:30:35;;;;;;;7.77;1.50;;;;;;;12.20;100.00;99633.03;6122376;28;20290;-75
2023/10/30 08:33:30;;;;;;;5.20;1.17;;;;;;;12.14;100.00;99634.59;6124659;28;20275;-75
2023/10/30 08:36:26;;;;;;;4.90;1.40;;;;;;;12.15;100.00;99649.50;6109523;28;20032;-75
2023/10/30 08:39:21;;;;;;;5.75;1.35;;;;;;;12.09;100.00;99646.75;6122678;28;20391;-77
2023/10/30 08:42:17;;;;;;;5.47;1.10;;;;;;;12.09;100.00;99652.06;6123045;28;20032;-76
2023/10/30 08:45:12;;;;;;;3.95;1.08;;;;;;;12.11;100.00;99652.72;6122492;28;20262;-78
2023/10/30 08:48:10;;;;;;;3.83;1.07;;;;;;;12.01;100.00;99666.28;6124931;28;20433;-75
2023/10/30 08:51:05;;;;;;;4.70;1.40;;;;;;;12.06;100.00;99679.00;6124948;28;20124;-78
2023/10/30 08:54:01;;;;;;;3.97;1.20;;;;;;;12.00;100.00;99674.41;6131199;28;20028;-76
2023/10/30 08:56:57;;;;;;;5.97;1.58;;;;;;;11.90;100.00;99670.16;6111482;28;20636;-75
2023/10/30 08:59:52;;;;;;;5.80;1.30;;;;;;;11.99;100.00;99686.03;6123886;28;20521;-79
2023/10/30 09:02:48;;;;;;;5.55;1.73;;;;;;;11.89;100.00;99673.03;6122100;28;20032;-77
2023/10/30 09:05:43;;;;;;;3.10;1.10;;;;;;;11.97;100.00;99672.13;6125587;28;21265;-73
2023/10/30 09:08:38;;;;;;;4.30;1.20;;;;;;;12.08;100.00;99700.91;6125998;28;20116;-75
2023/10/30 09:11:34;;;;;;;7.20;1.30;;;;;;;12.11;100.00;99687.25;6105731;28;20373;-77
2023/10/30 09:14:29;;;;;;;3.80;1.30;;;;;;;12.37;100.00;99703.59;6135185;28;20040;-74
2023/10/30 09:17:25;;;;;;;2.93;1.20;;;;;;;12.76;100.00;99690.84;6133218;28;20035;-77
2023/10/30 09:20:20;;;;;;;5.10;1.52;;;;;;;12.96;100.00;99670.63;6131289;28;20353;-79
2023/10/30 09:23:53;;;;;;;3.28;1.15;;;;;;;13.49;100.00;99700.53;6120070;28;20033;-78
2023/10/30 09:26:48;;;;;;;3.80;0.80;;;;;;;13.90;100.00;99700.72;6132335;28;20073;-76
2023/10/30 09:29:44;;;;;;;3.53;1.20;;;;;;;14.26;100.00;99694.25;6123283;28;20028;-76
2023/10/30 09:32:39;;;;;;;3.80;1.13;;;;;;;14.67;100.00;99690.81;6121404;28;20529;-77
2023/10/30 09:35:37;;;;;;;6.43;1.30;;;;;;;14.47;100.00;99669.38;6121829;28;20036;-74
2023/10/30 09:38:32;;;;;;;4.07;1.30;;;;;;;14.86;100.00;99698.13;6121457;28;20082;-76
2023/10/30 09:41:28;;;;;;;3.67;1.00;;;;;;;14.95;100.00;99699.56;6124316;28;20475;-76
2023/10/30 09:44:24;;;;;;;3.60;0.80;;;;;;;15.11;100.00;99711.78;6126169;28;20013;-76
2023/10/30 09:47:21;;;;;;;3.75;1.10;;;;;;;15.04;100.00;99687.69;6131056;28;20032;-77
2023/10/30 09:50:19;;;;;;;6.47;0.90;;;;;;;15.04;100.00;99682.38;6132177;28;20078;-77
2023/10/30 09:53:14;;;;;;;3.20;0.85;;;;;;;15.12;100.00;99698.22;6127756;28;20040;-75
2023/10/30 09:56:10;;;;;;;4.10;0.90;;;;;;;15.30;100.00;99695.78;6103808;28;20475;-77
2023/10/30 09:59:05;;;;;;;7.78;0.98;;;;;;;15.05;100.00;99693.88;6089238;28;20302;-77
2023/10/30 10:02:01;;;;;;;5.13;1.13;;;;;;;15.12;100.00;99690.19;6124666;28;20037;-73
2023/10/30 10:04:57;;;;;;;6.72;0.93;;;;;;;15.05;100.00;99677.84;6120580;28;20039;-74
2023/10/30 10:07:52;;;;;;;2.88;0.60;;;;;;;15.23;100.00;99681.59;6058808;28;20067;-74
2023/10/30 10:10:53;;;;;;;5.93;1.40;;;;;;;15.00;100.00;99678.44;6105118;28;20033;-74
2023/10/30 10:13:49;;;;;;;3.65;1.00;;;;;;;15.24;100.00;99688.59;6127359;28;20505;-75
2023/10/30 10:16:45;;;;;;;3.45;0.90;;;;;;;15.41;100.00;99705.06;6123149;28;20040;-75
2023/10/30 10:19:45;;;;;;;5.30;1.90;;;;;;;15.36;100.00;99692.31;6125775;28;20435;-77
2023/10/30 10:22:40;;;;;;;6.30;0.98;;;;;;;15.38;100.00;99690.25;6123409;28;20016;-75
2023/10/30 10:25:36;;;;;;;4.27;0.80;;;;;;;15.47;100.00;99683.75;6121182;28;20098;-76
2023/10/30 10:28:32;;;;;;;2.72;0.95;;;;;;;15.81;100.00;99696.13;6120081;28;20464;-76
2023/10/30 10:31:28;;;;;;;2.00;0.75;;;;;;;15.77;99.96;99688.72;6119833;28;20095;-74
2023/10/30 10:34:23;;;;;;;6.55;1.35;;;;;;;16.21;98.53;99685.41;6120066;28;20054;-79
2023/10/30 10:37:19;;;;;;;7.00;1.20;;;;;;;16.23;96.78;99689.53;6119674;28;20039;-74
2023/10/30 10:40:16;;;;;;;4.82;1.48;;;;;;;15.90;95.47;99699.41;6121998;28;20047;-73
2023/10/30 10:43:12;;;;;;;6.20;1.02;;;;;;;15.97;95.32;99690.38;6095478;28;20028;-75
2023/10/30 10:46:08;;;;;;;4.25;0.95;;;;;;;15.84;94.64;99695.75;6119505;28;20403;-73
2023/10/30 10:49:03;;;;;;;3.60;0.80;;;;;;;16.11;94.99;99685.84;6119782;28;20444;-77
2023/10/30 10:51:59;;;;;;;5.13;1.23;;;;;;;16.57;91.60;99681.28;6103124;28;20899;-74
2023/10/30 10:55:03;;;;;;;1.67;0.75;;;;;;;16.63;89.68;99696.47;6124903;28;20302;-75
2023/10/30 10:58:04;;;;;;;3.53;0.90;;;;;;;16.65;88.45;99683.72;6101872;28;20029;-72
2023/10/30 11:01:01;;;;;;;4.80;0.82;;;;;;;16.38;89.61;99681.28;6102175;28;20029;-74
2023/10/30 11:03:56;;;;;;;2.70;0.93;;;;;;;16.15;91.12;99673.69;6126076;28;20091;-73
2023/10/30 11:06:57;;;;;;;2.87;0.67;;;;;;;16.12;91.42;99682.13;6102117;28;20056;-74
2023/10/30 11:09:56;;;;;;;4.97;0.80;;;;;;;16.39;90.43;99686.41;6102702;28;20283;-74
2023/10/30 11:13:06;;;;;;;4.82;1.02;;;;;;;16.22;89.20;99663.00;6123150;28;20479;-75
2023/10/30 11:16:17;;;;;;;5.20;0.98;;;;;;;15.99;90.84;99684.81;6123625;28;20116;-76
2023/10/30 11:19:13;;;;;;;2.53;0.77;;;;;;;16.01;93.44;99666.72;6099385;28;20464;-76
2023/10/30 11:22:08;;;;;;;2.30;0.98;;;;;;;16.06;91.64;99657.03;6104997;28;20083;-74
2023/10/30 11:25:05;;;;;;;5.50;0.70;;;;;;;15.82;92.58;99660.34;6119724;28;20025;-74
2023/10/30 11:28:00;;;;;;;1.95;0.55;;;;;;;15.52;94.56;99645.72;6128007;28;20777;-75
2023/10/30 11:30:56;;;;;;;3.95;0.70;;;;;;;15.60;95.90;99647.41;6122501;28;20029;-73
2023/10/30 11:34:06;;;;;;;2.83;0.60;;;;;;;15.82;93.02;99643.47;6122536;28;20025;-74
2023/10/30 11:37:12;;;;;;;3.45;1.13;;;;;;;15.87;93.56;99657.88;6119955;28;20029;-74
2023/10/30 11:40:08;;;;;;;5.53;1.73;;;;;;;15.70;91.14;99648.63;6101386;28;20035;-73
2023/10/30 11:43:06;;;;;;;3.00;0.95;;;;;;;15.67;91.01;99637.53;6122458;28;20026;-74
2023/10/30 11:46:02;;;;;;;4.18;1.08;;;;;;;15.84;91.44;99641.44;6120060;28;20492;-75
2023/10/30 11:48:58;;;;;;;5.15;0.75;;;;;;;15.91;90.20;99636.91;6106803;28;20039;-74
2023/10/30 11:51:54;;;;;;;1.33;0.50;;;;;;;16.03;89.50;99646.75;6089350;28;20040;-75
2023/10/30 11:54:49;;;;;;;2.25;0.70;;;;;;;15.99;90.42;99639.34;6129177;28;20095;-74
2023/10/30 11:57:45;;;;;;;3.50;0.75;;;;;;;15.60;91.96;99629.47;6132334;28;20051;-74
2023/10/30 12:00:45;;;;;;;1.77;0.77;;;;;;;15.43;94.95;99638.91;6107993;28;20535;-73
2023/10/30 12:03:42;;;;;;;3.35;1.02;;;;;;;15.46;96.45;99639.34;6132361;28;20024;-73
2023/10/30 12:06:37;;;;;;;2.83;1.20;;;;;;;15.57;94.67;99623.75;6123740;28;20025;-74
2023/10/30 12:09:33;;;;;;;3.72;1.10;;;;;;;15.51;94.72;99629.91;6123310;28;20491;-74
2023/10/30 12:12:30;;;;;;;4.70;3.20;;;;;;;15.59;96.51;99635.03;6127036;28;20051;-75
2023/10/30 12:15:25;;;;;;;2.30;1.08;;;;;;;15.64;95.99;99630.72;6107313;28;20269;-74
2023/10/30 12:18:22;;;;;;;10.18;1.58;;;;;;;15.89;94.77;99626.41;6123576;28;20029;-73
2023/10/30 12:21:18;;;;;;;4.10;0.90;;;;;;;15.93;93.14;99611.59;6126615;28;20039;-74
2023/10/30 12:24:19;;;;;;;3.08;0.80;;;;;;;15.78;92.30;99604.81;6107838;28;20020;-74
2023/10/30 12:27:19;;;;;;;2.15;0.65;;;;;;;15.76;92.59;99602.34;6134109;28;20120;-76
2023/10/30 12:30:16;;;;;;;2.85;0.80;;;;;;;15.46;93.07;99595.78;6123399;28;20245;-75
2023/10/30 12:33:20;;;;;;;5.40;1.10;;;;;;;15.31;94.55;99593.25;6114868;28;20025;-76
2023/10/30 12:36:16;;;;;;;2.05;0.70;;;;;;;15.32;94.37;99581.56;6120825;28;20035;-75
2023/10/30 12:39:21;;;;;;;1.50;0.60;;;;;;;15.29;94.63;99610.53;6122851;28;20024;-75
2023/10/30 12:42:16;;;;;;;4.38;0.70;;;;;;;15.19;96.93;99594.88;6124924;28;20036;-74
2023/10/30 12:45:14;;;;;;;2.90;0.80;;;;;;;15.25;97.12;99599.41;6123331;28;20431;-76
2023/10/30 12:48:09;;;;;;;4.32;0.93;;;;;;;15.39;95.86;99595.75;6122947;28;20378;-73
2023/10/30 12:51:04;;;;;;;4.67;1.00;;;;;;;15.43;94.93;99601.50;6125155;28;20036;-76
2023/10/30 12:54:00;;;;;;;2.07;0.70;;;;;;;15.47;95.87;99581.38;6102707;28;20031;-74
2023/10/30 12:56:55;;;;;;;2.65;0.40;;;;;;;15.51;94.30;99587.16;6122383;28;20960;-74
2023/10/30 12:59:51;;;;;;;2.03;0.63;;;;;;;15.69;93.59;99590.84;6126303;28;20020;-75
2023/10/30 13:02:46;;;;;;;1.95;0.60;;;;;;;15.71;92.77;99575.41;6130364;28;20075;-74
2023/10/30 13:05:42;;;;;;;1.93;0.67;;;;;;;15.53;93.07;99564.53;6127545;28;20028;-73
2023/10/30 13:08:37;;;;;;;1.73;0.45;;;;;;;15.63;93.27;99569.44;6124647;28;20027;-75
2023/10/30 13:11:33;;;;;;;2.90;0.85;;;;;;;15.46;95.12;99553.84;6126504;28;20059;-77
2023/10/30 13:14:28;;;;;;;1.53;0.60;;;;;;;15.40;95.66;99564.50;6126749;28;20056;-75
2023/10/30 13:17:23;;;;;;;5.40;1.98;;;;;;;15.32;95.30;99544.16;6127226;28;20375;-75
2023/10/30 13:20:19;;;;;;;4.10;1.40;;;;;;;15.36;93.81;99548.06;6103814;28;20033;-74
2023/10/30 13:23:14;;;;;;;1.55;0.60;;;;;;;15.33;94.16;99544.97;6122459;28;20637;-74
2023/10/30 13:26:09;;;;;;;3.13;0.70;;;;;;;15.46;94.72;99545.03;6126443;28;20028;-76
2023/10/30 13:29:05;;;;;;;2.63;0.63;;;;;;;15.38;94.16;99521.94;6122768;28;20365;-77
2023/10/30 13:32:00;;;;;;;2.20;0.60;;;;;;;15.58;93.65;99534.50;6123606;28;20028;-75
2023/10/30 13:34:56;;;;;;;3.27;0.90;;;;;;;15.45;92.59;99514.78;6121137;28;20031;-76
2023/10/30 13:37:51;;;;;;;2.72;1.13;;;;;;;15.52;92.51;99513.97;6121529;28;20025;-75
2023/10/30 13:40:47;;;;;;;1.30;0.60;;;;;;;15.39;93.78;99502.22;6128506;28;20445;-76